Pagina principale
METAR-TAF:

METAR-TAF

Aeroporti :

Aeroporto di Magadino

Locarno, Svizzera

latitudine: 46-09-55N, longitudine: 8-52-40E, altezza: 198 m

Osservazione

Il bollettino è stato emesso 21 minuti fa, alle 01:20 UTC
Vento calmo
Temperature 2°C
Umidità 100%
Pressione 1021 hPa
Visibilità: 6000 m

METAR: LSZL 240120Z AUTO 00000KT 6000NDV NCD 02/02 Q1021 RMK

Ora: 02:41 (01:41 UTC)


TAF: mancante

Osservazioni e previsioni meteorologiche di più di 4000 aeroporti (messaggi METAR e TAF).

Le stazioni disponibili sono rappresentate dai dischi gialli e rossi sulla carta.

Puntare il mouse per vedere il nome della stazione.

Clicca sopra per visualizzare le osservazioni e previsioni meteorologiche.

Per cambiare la mappa : fare clic sui pulsanti verdi con una croce nera per ingrandire, il pulsante verde con un trattino per diminuire, o sulla freccia verde per le mappe adiacenti.


METAR-TAF: